createdAt,value
2018-12-31T00:00:00.235Z,78.56
2018-12-31T00:02:27.199Z,78.54
2018-12-31T00:04:54.172Z,78.35
2018-12-31T00:07:21.169Z,78.42
2018-12-31T00:09:48.713Z,78.33
2018-12-31T00:12:15.652Z,78.45
2018-12-31T00:14:42.582Z,78.87
2018-12-31T00:17:09.551Z,79.14
2018-12-31T00:19:36.487Z,79.26
2018-12-31T00:22:03.504Z,79.64
2018-12-31T00:24:30.481Z,79.88
2018-12-31T00:26:57.879Z,80.04
2018-12-31T00:29:25.291Z,79.89
2018-12-31T00:31:52.750Z,79.69
2018-12-31T00:34:20.137Z,79.58
2018-12-31T00:36:47.545Z,79.42
2018-12-31T00:39:14.939Z,79.44
2018-12-31T00:41:42.360Z,79.29
2018-12-31T00:44:09.841Z,79.12
2018-12-31T00:46:37.236Z,78.81
2018-12-31T00:49:04.633Z,78.79
2018-12-31T00:51:32.053Z,78.77
2018-12-31T00:53:59.451Z,78.89
2018-12-31T00:56:26.915Z,78.84
2018-12-31T00:58:54.313Z,78.83
2018-12-31T01:01:21.706Z,78.87
2018-12-31T01:03:49.115Z,79.15
2018-12-31T01:06:17.092Z,79.37
2018-12-31T01:08:44.505Z,79.39
2018-12-31T01:11:11.916Z,79.27
2018-12-31T01:13:39.317Z,79.23
2018-12-31T01:16:06.724Z,79.09
2018-12-31T01:18:34.121Z,78.92
2018-12-31T01:21:01.525Z,78.79
2018-12-31T01:23:28.920Z,78.50
2018-12-31T01:25:56.370Z,78.42
2018-12-31T01:28:23.779Z,78.53
2018-12-31T01:30:51.187Z,78.68
2018-12-31T01:33:18.601Z,79.07
2018-12-31T01:35:45.999Z,78.91
2018-12-31T01:38:13.572Z,78.90
2018-12-31T01:40:40.981Z,78.99
2018-12-31T01:43:08.601Z,79.04
2018-12-31T01:45:36.209Z,79.02
2018-12-31T01:48:03.651Z,79.13
2018-12-31T01:50:31.063Z,78.87
2018-12-31T01:52:58.479Z,78.80
2018-12-31T01:55:25.892Z,78.81
2018-12-31T01:57:53.279Z,78.72
2018-12-31T02:00:20.695Z,78.32
2018-12-31T02:02:48.264Z,78.27
2018-12-31T02:05:15.658Z,78.08
2018-12-31T02:07:43.073Z,78.02
2018-12-31T02:10:10.471Z,77.85
2018-12-31T02:12:37.889Z,78.14
2018-12-31T02:15:05.308Z,78.12
2018-12-31T02:17:32.702Z,78.07
2018-12-31T02:20:00.170Z,78.08
2018-12-31T02:22:27.655Z,78.18
2018-12-31T02:24:55.056Z,78.25
2018-12-31T02:27:22.463Z,78.24
2018-12-31T02:29:49.893Z,78.22
2018-12-31T02:32:17.294Z,78.34
2018-12-31T02:34:44.688Z,78.66
2018-12-31T02:37:12.083Z,79.19
2018-12-31T02:39:39.524Z,79.50
2018-12-31T02:42:06.920Z,79.43
2018-12-31T02:44:34.326Z,79.34
2018-12-31T02:47:01.882Z,79.10
2018-12-31T02:49:29.366Z,79.07
2018-12-31T02:51:56.776Z,79.20
2018-12-31T02:54:24.193Z,79.17
2018-12-31T02:56:51.610Z,79.11
2018-12-31T02:59:19.000Z,79.19
2018-12-31T03:01:46.429Z,79.07
2018-12-31T03:04:13.841Z,79.08
2018-12-31T03:06:41.246Z,79.18
2018-12-31T03:09:08.650Z,79.02
2018-12-31T03:11:36.458Z,78.87
2018-12-31T03:14:04.529Z,78.65
2018-12-31T03:16:31.925Z,78.94
2018-12-31T03:18:59.374Z,78.91
2018-12-31T03:21:26.780Z,79.10
2018-12-31T03:23:54.455Z,79.12
2018-12-31T03:26:21.868Z,79.11
2018-12-31T03:28:49.267Z,79.26
2018-12-31T03:31:16.683Z,79.30
2018-12-31T03:33:44.094Z,79.22
2018-12-31T03:36:11.487Z,79.15
2018-12-31T03:38:38.445Z,79.04
2018-12-31T03:41:05.394Z,78.89
2018-12-31T03:43:33.258Z,78.74
2018-12-31T03:46:00.250Z,78.84
2018-12-31T03:48:28.299Z,78.91
2018-12-31T03:50:55.726Z,78.91
2018-12-31T03:53:22.707Z,78.98
2018-12-31T03:55:50.397Z,79.09
2018-12-31T03:58:17.521Z,79.03
2018-12-31T04:00:44.521Z,78.84
2018-12-31T04:03:11.954Z,78.80
2018-12-31T04:05:39.363Z,78.84
2018-12-31T04:08:06.760Z,79.09
2018-12-31T04:10:34.209Z,79.07
2018-12-31T04:13:01.619Z,79.11
2018-12-31T04:15:29.055Z,79.27
2018-12-31T04:17:56.021Z,79.26
2018-12-31T04:20:23.452Z,79.05
2018-12-31T04:22:50.837Z,79.24
2018-12-31T04:25:18.246Z,79.12
2018-12-31T04:27:45.641Z,79.02
2018-12-31T04:30:14.634Z,79.23
2018-12-31T04:32:42.068Z,79.14
2018-12-31T04:35:09.130Z,79.12
2018-12-31T04:37:36.075Z,79.33
2018-12-31T04:40:03.058Z,79.06
2018-12-31T04:42:30.020Z,78.84
2018-12-31T04:44:57.111Z,78.76
2018-12-31T04:47:24.528Z,78.62
2018-12-31T04:52:20.321Z,78.82
2018-12-31T04:54:47.372Z,78.79
2018-12-31T04:57:14.920Z,78.84
2018-12-31T04:59:41.887Z,78.96
2018-12-31T05:02:08.980Z,79.31
2018-12-31T05:04:36.026Z,79.38
2018-12-31T05:07:03.424Z,80.35
2018-12-31T05:09:30.851Z,80.94
2018-12-31T05:11:58.243Z,81.18
2018-12-31T05:14:25.648Z,81.13
2018-12-31T05:16:53.310Z,80.86
2018-12-31T05:19:20.735Z,80.41
2018-12-31T05:21:48.137Z,80.44
2018-12-31T05:24:15.550Z,80.37
2018-12-31T05:26:43.031Z,80.16
2018-12-31T05:29:10.443Z,80.26
2018-12-31T05:31:37.850Z,80.30
2018-12-31T05:34:05.303Z,80.19
2018-12-31T05:36:33.372Z,80.23
2018-12-31T05:39:00.780Z,80.01
2018-12-31T05:41:28.195Z,80.09
2018-12-31T05:43:55.591Z,79.95
2018-12-31T05:46:23.024Z,80.33
2018-12-31T05:48:50.436Z,80.73
2018-12-31T05:51:17.840Z,81.13
2018-12-31T05:53:45.383Z,80.96
2018-12-31T05:56:12.779Z,80.98
2018-12-31T05:58:40.191Z,80.89
2018-12-31T06:01:07.586Z,80.71
2018-12-31T06:03:34.998Z,80.66
2018-12-31T06:06:02.455Z,80.60
2018-12-31T06:08:29.829Z,80.36
2018-12-31T06:10:57.257Z,80.50
2018-12-31T06:15:58.631Z,80.31
2018-12-31T06:18:26.050Z,80.22
2018-12-31T06:20:53.441Z,80.13
2018-12-31T06:23:21.797Z,80.15
2018-12-31T06:25:49.220Z,80.03
2018-12-31T06:28:16.620Z,79.79
2018-12-31T06:30:44.023Z,79.79
2018-12-31T06:33:11.429Z,79.77
2018-12-31T06:35:38.847Z,79.79
2018-12-31T06:38:06.362Z,79.76
2018-12-31T06:40:33.961Z,80.31
2018-12-31T06:43:01.440Z,80.32
2018-12-31T06:45:28.831Z,80.28
2018-12-31T06:47:56.229Z,80.18
2018-12-31T06:50:23.700Z,80.23
2018-12-31T06:52:51.101Z,80.46
2018-12-31T06:55:18.495Z,80.68
2018-12-31T06:57:45.883Z,80.58
2018-12-31T07:00:13.494Z,80.59
2018-12-31T07:02:40.891Z,80.43
2018-12-31T07:05:08.323Z,80.85
2018-12-31T07:07:35.727Z,80.92
2018-12-31T07:10:03.143Z,80.92
2018-12-31T07:12:30.546Z,80.85
2018-12-31T07:14:58.012Z,80.96
2018-12-31T07:17:25.458Z,81.17
2018-12-31T07:19:52.872Z,81.25
2018-12-31T07:22:20.327Z,80.99
2018-12-31T07:24:47.703Z,80.71
2018-12-31T07:27:15.103Z,80.99
2018-12-31T07:29:42.559Z,81.02
2018-12-31T07:32:10.069Z,81.18
2018-12-31T07:34:37.471Z,81.14
2018-12-31T07:37:05.142Z,81.03
2018-12-31T07:39:32.568Z,80.93
2018-12-31T07:41:59.976Z,80.72
2018-12-31T07:44:27.411Z,80.39
2018-12-31T07:46:54.883Z,80.13
2018-12-31T07:49:23.053Z,79.86
2018-12-31T07:51:50.499Z,79.74
2018-12-31T07:54:17.953Z,79.57
2018-12-31T07:56:45.363Z,79.57
2018-12-31T07:59:12.768Z,79.71
2018-12-31T08:01:40.187Z,79.65
2018-12-31T08:04:07.615Z,79.62
2018-12-31T08:06:35.033Z,80.19
2018-12-31T08:09:03.182Z,80.27
2018-12-31T08:11:31.505Z,79.98
2018-12-31T08:13:58.908Z,79.48
2018-12-31T08:16:26.309Z,79.65
2018-12-31T08:18:53.752Z,79.91
2018-12-31T08:21:21.190Z,79.71
2018-12-31T08:23:48.601Z,79.13
2018-12-31T08:26:15.993Z,78.66
2018-12-31T08:28:43.458Z,78.19
2018-12-31T08:31:10.865Z,77.98
2018-12-31T08:33:38.306Z,78.10
2018-12-31T08:36:05.723Z,77.13
2018-12-31T08:38:33.171Z,77.09
2018-12-31T08:41:00.580Z,77.29
2018-12-31T08:43:28.443Z,76.84
2018-12-31T08:45:55.851Z,76.22
2018-12-31T08:48:23.255Z,74.83
2018-12-31T08:50:50.723Z,72.90
2018-12-31T08:53:18.176Z,71.65
2018-12-31T08:55:45.585Z,68.55
2018-12-31T08:58:13.084Z,65.99
2018-12-31T09:00:40.490Z,63.37
2018-12-31T09:03:07.912Z,61.96
2018-12-31T09:05:35.415Z,62.35
2018-12-31T09:08:02.812Z,63.56
2018-12-31T09:10:30.232Z,65.09
2018-12-31T09:12:57.678Z,66.09
2018-12-31T09:15:25.080Z,66.80
2018-12-31T09:17:52.085Z,67.14
2018-12-31T09:20:19.120Z,67.76
2018-12-31T09:22:46.101Z,68.41
2018-12-31T09:25:13.941Z,68.63
2018-12-31T09:30:13.406Z,69.31
2018-12-31T09:32:40.548Z,70.24
2018-12-31T09:35:08.286Z,70.74
2018-12-31T09:37:35.881Z,71.25
2018-12-31T09:40:04.087Z,72.03
2018-12-31T09:42:31.500Z,72.04
2018-12-31T09:44:58.901Z,71.83
2018-12-31T09:47:26.352Z,71.42
2018-12-31T09:49:53.759Z,69.81
2018-12-31T09:52:21.584Z,68.50
2018-12-31T09:54:48.991Z,67.37
2018-12-31T09:57:15.939Z,65.34
2018-12-31T09:59:43.395Z,63.67
2018-12-31T10:02:10.809Z,61.88
2018-12-31T10:04:38.212Z,60.51
2018-12-31T10:07:05.153Z,58.12
2018-12-31T10:09:32.098Z,55.86
2018-12-31T10:11:59.042Z,52.53
2018-12-31T10:14:26.109Z,49.94
2018-12-31T10:16:53.063Z,47.31
2018-12-31T10:19:20.194Z,46.45
2018-12-31T10:21:47.128Z,44.63
2018-12-31T10:24:14.128Z,44.11
2018-12-31T10:26:41.097Z,43.24
2018-12-31T10:29:08.058Z,42.19
2018-12-31T10:31:35.034Z,42.69
2018-12-31T10:34:01.987Z,42.59
2018-12-31T10:36:28.968Z,41.67
2018-12-31T10:38:56.653Z,41.10
2018-12-31T10:41:23.649Z,40.40
2018-12-31T10:43:51.063Z,39.62
2018-12-31T10:46:18.476Z,39.15
2018-12-31T10:48:45.886Z,39.89
2018-12-31T10:51:13.299Z,40.14
2018-12-31T10:53:40.877Z,40.73
2018-12-31T10:56:08.367Z,40.36
2018-12-31T10:58:36.147Z,39.87
2018-12-31T11:01:03.633Z,39.84
2018-12-31T11:03:31.093Z,39.24
2018-12-31T11:05:58.623Z,38.25
2018-12-31T11:08:26.573Z,37.70
2018-12-31T11:10:53.987Z,38.41
2018-12-31T11:13:21.425Z,40.61
2018-12-31T11:15:48.839Z,42.77
2018-12-31T11:18:16.247Z,44.83
2018-12-31T11:20:43.896Z,46.75
2018-12-31T11:23:10.851Z,47.86
2018-12-31T11:25:37.921Z,48.21
2018-12-31T11:28:04.870Z,46.67
2018-12-31T11:30:31.854Z,47.13
2018-12-31T11:32:58.800Z,48.22
2018-12-31T11:35:25.850Z,46.20
2018-12-31T11:37:52.840Z,42.96
2018-12-31T11:40:19.831Z,45.28
2018-12-31T11:42:46.803Z,47.97
2018-12-31T11:45:13.809Z,44.24
2018-12-31T11:47:40.782Z,41.72
2018-12-31T11:50:07.855Z,39.06
2018-12-31T11:52:34.796Z,37.44
2018-12-31T11:55:03.469Z,36.53
2018-12-31T11:57:28.820Z,37.18
2018-12-31T11:59:57.515Z,40.75
2018-12-31T12:02:24.559Z,43.80
2018-12-31T12:04:52.004Z,45.67
2018-12-31T12:07:19.229Z,44.81
2018-12-31T12:11:15.495Z,42.27
2018-12-31T12:13:42.467Z,42.08
2018-12-31T12:16:09.623Z,43.13
2018-12-31T12:18:36.698Z,43.38
2018-12-31T12:21:04.114Z,43.20
2018-12-31T12:23:31.758Z,41.83
2018-12-31T12:25:59.187Z,39.96
2018-12-31T12:28:26.605Z,37.96
2018-12-31T12:30:54.020Z,36.90
2018-12-31T12:33:21.426Z,36.22
2018-12-31T12:35:48.833Z,35.52
2018-12-31T12:38:15.834Z,37.41
2018-12-31T12:40:42.794Z,39.95
2018-12-31T12:43:10.246Z,41.79
2018-12-31T12:45:37.658Z,40.76
2018-12-31T12:48:05.288Z,41.09
2018-12-31T12:50:32.714Z,40.83
2018-12-31T12:53:00.136Z,41.96
2018-12-31T12:55:27.557Z,42.24
2018-12-31T12:57:55.966Z,40.71
2018-12-31T13:00:23.703Z,38.47
2018-12-31T13:02:52.724Z,35.26
2018-12-31T13:05:20.270Z,35.94
2018-12-31T13:07:49.140Z,35.88
2018-12-31T13:10:17.449Z,37.70
2018-12-31T13:12:44.737Z,37.62
2018-12-31T13:15:11.841Z,34.73
2018-12-31T13:17:39.424Z,32.46
2018-12-31T13:20:06.965Z,30.49
2018-12-31T13:22:34.574Z,29.34
2018-12-31T13:25:02.047Z,28.82
2018-12-31T13:27:29.923Z,28.73
2018-12-31T13:29:57.396Z,29.04
2018-12-31T13:32:24.959Z,28.79
2018-12-31T13:34:52.549Z,29.76
2018-12-31T13:37:20.079Z,34.79
2018-12-31T13:39:49.142Z,39.02
2018-12-31T13:42:17.940Z,41.86
2018-12-31T13:44:45.510Z,44.23
2018-12-31T13:47:13.151Z,47.05
2018-12-31T13:49:40.623Z,48.39
2018-12-31T13:52:08.271Z,50.04
2018-12-31T13:54:35.762Z,51.14
2018-12-31T13:57:03.315Z,51.91
2018-12-31T13:59:30.833Z,52.28
2018-12-31T14:01:58.423Z,52.55
2018-12-31T14:04:29.056Z,53.50
2018-12-31T14:06:56.720Z,53.74
2018-12-31T14:09:24.301Z,54.76
2018-12-31T14:11:52.878Z,55.27
2018-12-31T14:14:21.622Z,55.46
2018-12-31T14:16:49.137Z,55.89
2018-12-31T14:19:17.010Z,56.29
2018-12-31T14:21:44.548Z,56.00
2018-12-31T14:24:12.283Z,56.45
2018-12-31T14:26:39.816Z,57.48
2018-12-31T14:29:10.551Z,58.34
2018-12-31T14:31:38.046Z,58.65
2018-12-31T14:34:05.602Z,59.33
2018-12-31T14:36:33.817Z,59.93
2018-12-31T14:39:01.446Z,60.68
2018-12-31T14:41:29.043Z,61.12
2018-12-31T14:43:56.461Z,61.30
2018-12-31T14:46:24.125Z,61.59
2018-12-31T14:48:51.609Z,61.82
2018-12-31T14:51:19.343Z,62.24
2018-12-31T14:53:46.998Z,62.61
2018-12-31T14:56:14.507Z,63.13
2018-12-31T14:58:42.327Z,63.53
2018-12-31T15:01:09.758Z,63.46
2018-12-31T15:03:37.325Z,63.33
2018-12-31T15:06:04.807Z,63.49
2018-12-31T15:08:32.399Z,63.79
2018-12-31T15:10:59.921Z,63.75
2018-12-31T15:16:00.497Z,63.63
2018-12-31T15:18:29.335Z,63.83
2018-12-31T15:20:56.923Z,64.07
2018-12-31T15:23:24.961Z,64.59
2018-12-31T15:25:52.620Z,64.73
2018-12-31T15:28:20.119Z,65.00
2018-12-31T15:30:47.617Z,65.85
2018-12-31T15:33:15.246Z,66.04
2018-12-31T15:35:42.797Z,65.94
2018-12-31T15:38:10.317Z,66.07
2018-12-31T15:40:38.094Z,66.40
2018-12-31T15:43:05.691Z,66.44
2018-12-31T15:45:33.358Z,66.21
2018-12-31T15:48:01.222Z,66.07
2018-12-31T15:50:28.721Z,66.26
2018-12-31T15:52:56.238Z,66.38
2018-12-31T15:55:23.801Z,66.43
2018-12-31T15:57:51.286Z,66.40
2018-12-31T16:00:18.896Z,66.60
2018-12-31T16:02:46.369Z,66.93
2018-12-31T16:05:13.994Z,67.52
2018-12-31T16:07:45.744Z,67.95
2018-12-31T16:10:09.831Z,67.88
2018-12-31T16:12:37.341Z,67.83
2018-12-31T16:15:04.788Z,67.73
2018-12-31T16:17:33.038Z,67.73
2018-12-31T16:20:00.915Z,67.84
2018-12-31T16:22:28.672Z,67.75
2018-12-31T16:24:59.239Z,67.86
2018-12-31T16:27:26.715Z,67.70
2018-12-31T16:29:54.160Z,67.86
2018-12-31T16:32:21.810Z,67.94
2018-12-31T16:34:49.382Z,67.87
2018-12-31T16:37:17.009Z,68.06
2018-12-31T16:39:44.478Z,68.25
2018-12-31T16:42:11.943Z,68.27
2018-12-31T16:44:39.489Z,68.31
2018-12-31T16:47:07.076Z,68.42
2018-12-31T16:49:34.640Z,68.86
2018-12-31T16:52:02.723Z,69.23
2018-12-31T16:54:30.429Z,69.47
2018-12-31T16:56:57.926Z,69.62
2018-12-31T16:59:25.493Z,69.67
2018-12-31T17:01:52.965Z,69.77
2018-12-31T17:04:20.573Z,69.89
2018-12-31T17:06:48.128Z,69.99
2018-12-31T17:09:15.619Z,70.09
2018-12-31T17:11:43.842Z,70.08
2018-12-31T17:14:11.404Z,70.24
2018-12-31T17:16:39.910Z,70.52
2018-12-31T17:19:07.471Z,70.72
2018-12-31T17:21:35.643Z,70.81
2018-12-31T17:24:03.154Z,70.69
2018-12-31T17:26:30.697Z,70.51
2018-12-31T17:28:58.251Z,70.43
2018-12-31T17:31:25.880Z,70.35
2018-12-31T17:33:54.464Z,70.46
2018-12-31T17:36:21.999Z,70.57
2018-12-31T17:38:50.978Z,70.76
2018-12-31T17:41:19.491Z,70.95
2018-12-31T17:43:47.153Z,71.33
2018-12-31T17:46:15.738Z,71.40
2018-12-31T17:48:43.352Z,71.33
2018-12-31T17:51:12.939Z,71.45
2018-12-31T17:53:41.099Z,71.70
2018-12-31T17:56:09.346Z,71.91
2018-12-31T17:58:37.868Z,71.82
2018-12-31T18:01:05.384Z,71.84
2018-12-31T18:03:33.093Z,71.85
2018-12-31T18:06:01.787Z,71.80
2018-12-31T18:08:29.376Z,71.99
2018-12-31T18:10:57.056Z,72.03
2018-12-31T18:13:27.546Z,72.14
2018-12-31T18:15:55.041Z,72.29
2018-12-31T18:18:23.409Z,72.45
2018-12-31T18:20:51.941Z,72.80
2018-12-31T18:23:20.614Z,73.14
2018-12-31T18:25:48.084Z,73.18
2018-12-31T18:28:15.557Z,73.09
2018-12-31T18:30:43.152Z,73.13
2018-12-31T18:33:10.572Z,73.22
2018-12-31T18:35:37.623Z,73.28
2018-12-31T18:38:04.639Z,73.23
2018-12-31T18:40:31.627Z,73.37
2018-12-31T18:42:58.753Z,73.57
2018-12-31T18:45:26.381Z,73.55
2018-12-31T18:47:53.548Z,73.65
2018-12-31T18:50:20.611Z,73.66
2018-12-31T18:52:47.632Z,73.52
2018-12-31T18:55:15.216Z,73.52
2018-12-31T18:57:42.719Z,73.42
2018-12-31T19:00:10.347Z,73.59
2018-12-31T19:02:37.410Z,73.71
2018-12-31T19:05:04.994Z,73.40
2018-12-31T19:07:32.439Z,73.32
2018-12-31T19:10:00.268Z,73.46
2018-12-31T19:12:27.749Z,73.68
2018-12-31T19:14:55.319Z,73.44
2018-12-31T19:17:23.044Z,73.47
2018-12-31T19:19:50.708Z,73.44
2018-12-31T19:22:18.294Z,73.31
2018-12-31T19:24:45.885Z,73.21
2018-12-31T19:27:14.924Z,73.20
2018-12-31T19:29:42.391Z,73.29
2018-12-31T19:32:10.005Z,73.30
2018-12-31T19:34:37.527Z,73.48
2018-12-31T19:37:05.054Z,73.39
2018-12-31T19:39:35.359Z,73.16
2018-12-31T19:42:02.868Z,72.85
2018-12-31T19:44:29.954Z,72.67
2018-12-31T19:46:57.051Z,72.64
2018-12-31T19:49:24.531Z,72.51
2018-12-31T19:51:52.181Z,72.67
2018-12-31T19:54:19.764Z,73.01
2018-12-31T19:56:47.431Z,73.07
2018-12-31T19:59:14.953Z,72.85
2018-12-31T20:01:43.453Z,72.93
2018-12-31T20:04:11.008Z,73.21
2018-12-31T20:06:38.490Z,73.23
2018-12-31T20:09:06.024Z,73.10
2018-12-31T20:11:34.781Z,73.08
2018-12-31T20:14:02.321Z,72.83
2018-12-31T20:16:29.837Z,72.92
2018-12-31T20:18:57.754Z,72.95
2018-12-31T20:21:25.290Z,72.92
2018-12-31T20:23:54.247Z,72.86
2018-12-31T20:26:22.368Z,72.95
2018-12-31T20:28:50.063Z,72.96
2018-12-31T20:31:18.136Z,72.82
2018-12-31T20:33:46.800Z,73.04
2018-12-31T20:36:14.483Z,72.79
2018-12-31T20:38:42.204Z,72.71
2018-12-31T20:41:10.582Z,72.76
2018-12-31T20:43:39.975Z,72.78
2018-12-31T20:46:07.484Z,72.77
2018-12-31T20:48:35.435Z,72.75
2018-12-31T20:51:02.997Z,72.90
2018-12-31T20:53:31.972Z,72.79
2018-12-31T20:55:59.541Z,72.86
2018-12-31T20:58:31.611Z,72.54
2018-12-31T21:01:03.906Z,72.74
2018-12-31T21:03:31.458Z,73.03
2018-12-31T21:06:03.183Z,73.09
2018-12-31T21:08:32.752Z,73.01
2018-12-31T21:11:02.032Z,72.78
2018-12-31T21:13:29.665Z,72.61
2018-12-31T21:15:58.173Z,72.53
2018-12-31T21:18:32.359Z,72.30
2018-12-31T21:21:02.379Z,72.26
2018-12-31T21:23:34.339Z,72.15
2018-12-31T21:26:03.158Z,72.09
2018-12-31T21:28:34.702Z,72.37
2018-12-31T21:31:06.654Z,72.48
2018-12-31T21:33:35.175Z,72.57
2018-12-31T21:36:06.465Z,72.58
2018-12-31T21:38:35.068Z,72.76
2018-12-31T21:41:04.252Z,72.65
2018-12-31T21:43:33.985Z,72.55
2018-12-31T21:46:02.224Z,72.49
2018-12-31T21:48:35.364Z,72.44
2018-12-31T21:51:04.009Z,72.54
2018-12-31T21:53:34.560Z,72.57
2018-12-31T21:56:03.696Z,72.39
2018-12-31T21:58:31.668Z,72.16
2018-12-31T22:00:59.799Z,72.28
2018-12-31T22:03:27.562Z,72.33
2018-12-31T22:05:55.355Z,72.16
2018-12-31T22:08:23.085Z,72.08
2018-12-31T22:10:52.169Z,71.92
2018-12-31T22:13:19.940Z,71.85
2018-12-31T22:15:47.539Z,71.89
2018-12-31T22:18:15.027Z,71.85
2018-12-31T22:20:42.489Z,72.04
2018-12-31T22:23:10.006Z,72.05
2018-12-31T22:25:37.576Z,72.51
2018-12-31T22:28:05.216Z,72.62
2018-12-31T22:30:32.724Z,72.91
2018-12-31T22:33:00.236Z,72.97
2018-12-31T22:35:28.068Z,72.56
2018-12-31T22:37:55.647Z,72.24
2018-12-31T22:40:22.700Z,72.26
2018-12-31T22:42:49.752Z,72.11
2018-12-31T22:45:17.400Z,72.06
2018-12-31T22:47:44.977Z,71.83
2018-12-31T22:50:12.685Z,71.72
2018-12-31T22:52:40.506Z,71.74
2018-12-31T22:55:08.005Z,71.75
2018-12-31T22:57:37.915Z,71.75
2018-12-31T23:00:05.847Z,71.66
2018-12-31T23:02:33.497Z,71.84
2018-12-31T23:05:01.165Z,72.14
2018-12-31T23:07:28.640Z,72.19
2018-12-31T23:09:56.386Z,72.15
2018-12-31T23:12:23.990Z,72.06
2018-12-31T23:14:51.689Z,71.88
2018-12-31T23:17:20.884Z,71.81
2018-12-31T23:19:49.665Z,71.94
2018-12-31T23:22:20.593Z,72.01
2018-12-31T23:24:53.183Z,71.85
2018-12-31T23:27:20.773Z,71.91
2018-12-31T23:29:48.290Z,71.88
2018-12-31T23:32:16.028Z,71.99
2018-12-31T23:34:43.515Z,72.16
2018-12-31T23:37:11.053Z,72.36
2018-12-31T23:39:38.842Z,72.56
2018-12-31T23:42:06.548Z,72.68
2018-12-31T23:44:34.237Z,72.72
2018-12-31T23:47:02.112Z,72.71
2018-12-31T23:49:29.654Z,72.54
2018-12-31T23:51:57.963Z,72.45
2018-12-31T23:54:25.443Z,72.66
2018-12-31T23:56:54.093Z,72.62
2018-12-31T23:59:21.566Z,72.54
